sensor_id;sensor_type;location;lat;lon;timestamp;P1;durP1;ratioP1;P2;durP2;ratioP2
12908;SDS011;6522;49.622;6.126;2023-05-29T00:01:23;19.60;;;18.37;;
12908;SDS011;6522;49.622;6.126;2023-05-29T00:04:10;20.55;;;19.35;;
12908;SDS011;6522;49.622;6.126;2023-05-29T00:06:57;19.12;;;17.73;;
12908;SDS011;6522;49.622;6.126;2023-05-29T00:09:43;19.52;;;18.23;;
12908;SDS011;6522;49.622;6.126;2023-05-29T00:12:31;18.37;;;17.10;;
12908;SDS011;6522;49.622;6.126;2023-05-29T00:15:18;18.25;;;17.10;;
12908;SDS011;6522;49.622;6.126;2023-05-29T00:18:05;16.48;;;15.38;;
12908;SDS011;6522;49.622;6.126;2023-05-29T00:20:51;17.80;;;16.60;;
12908;SDS011;6522;49.622;6.126;2023-05-29T00:23:38;17.58;;;16.65;;
12908;SDS011;6522;49.622;6.126;2023-05-29T00:26:25;16.08;;;15.07;;
12908;SDS011;6522;49.622;6.126;2023-05-29T00:29:12;17.80;;;16.70;;
12908;SDS011;6522;49.622;6.126;2023-05-29T00:31:58;18.23;;;17.25;;
12908;SDS011;6522;49.622;6.126;2023-05-29T00:34:45;18.05;;;17.05;;
12908;SDS011;6522;49.622;6.126;2023-05-29T00:37:31;16.92;;;15.90;;
12908;SDS011;6522;49.622;6.126;2023-05-29T00:40:19;16.87;;;15.98;;
12908;SDS011;6522;49.622;6.126;2023-05-29T00:43:05;15.75;;;14.75;;
12908;SDS011;6522;49.622;6.126;2023-05-29T00:45:52;17.90;;;16.25;;
12908;SDS011;6522;49.622;6.126;2023-05-29T00:48:39;16.85;;;15.82;;
12908;SDS011;6522;49.622;6.126;2023-05-29T00:51:25;17.65;;;16.55;;
12908;SDS011;6522;49.622;6.126;2023-05-29T00:54:13;17.62;;;16.45;;
12908;SDS011;6522;49.622;6.126;2023-05-29T00:56:59;16.05;;;15.10;;
12908;SDS011;6522;49.622;6.126;2023-05-29T00:59:45;15.40;;;14.60;;
12908;SDS011;6522;49.622;6.126;2023-05-29T01:02:32;16.75;;;15.65;;
12908;SDS011;6522;49.622;6.126;2023-05-29T01:05:18;14.40;;;13.50;;
12908;SDS011;6522;49.622;6.126;2023-05-29T01:08:06;16.85;;;15.57;;
12908;SDS011;6522;49.622;6.126;2023-05-29T01:10:53;16.35;;;15.50;;
12908;SDS011;6522;49.622;6.126;2023-05-29T01:13:39;15.45;;;14.57;;
12908;SDS011;6522;49.622;6.126;2023-05-29T01:16:31;14.43;;;13.52;;
12908;SDS011;6522;49.622;6.126;2023-05-29T01:19:22;16.48;;;15.68;;
12908;SDS011;6522;49.622;6.126;2023-05-29T01:27:49;15.52;;;14.73;;
12908;SDS011;6522;49.622;6.126;2023-05-29T01:30:36;16.55;;;15.40;;
12908;SDS011;6522;49.622;6.126;2023-05-29T01:33:22;15.35;;;14.25;;
12908;SDS011;6522;49.622;6.126;2023-05-29T01:36:09;15.00;;;14.20;;
12908;SDS011;6522;49.622;6.126;2023-05-29T01:38:56;15.63;;;14.52;;
12908;SDS011;6522;49.622;6.126;2023-05-29T01:41:43;15.38;;;14.48;;
12908;SDS011;6522;49.622;6.126;2023-05-29T01:44:29;13.88;;;12.88;;
12908;SDS011;6522;49.622;6.126;2023-05-29T01:47:16;15.88;;;14.80;;
12908;SDS011;6522;49.622;6.126;2023-05-29T01:50:03;16.27;;;15.18;;
12908;SDS011;6522;49.622;6.126;2023-05-29T01:52:50;14.93;;;14.00;;
12908;SDS011;6522;49.622;6.126;2023-05-29T01:55:36;14.82;;;13.93;;
12908;SDS011;6522;49.622;6.126;2023-05-29T01:58:23;14.38;;;13.48;;
12908;SDS011;6522;49.622;6.126;2023-05-29T02:01:09;14.02;;;13.13;;
12908;SDS011;6522;49.622;6.126;2023-05-29T02:03:56;13.27;;;12.55;;
12908;SDS011;6522;49.622;6.126;2023-05-29T02:06:43;13.93;;;12.93;;
12908;SDS011;6522;49.622;6.126;2023-05-29T02:09:30;14.43;;;13.60;;
12908;SDS011;6522;49.622;6.126;2023-05-29T02:12:17;13.77;;;12.88;;
12908;SDS011;6522;49.622;6.126;2023-05-29T02:15:03;13.70;;;12.73;;
12908;SDS011;6522;49.622;6.126;2023-05-29T02:17:50;14.15;;;13.13;;
12908;SDS011;6522;49.622;6.126;2023-05-29T02:20:37;13.43;;;12.63;;
12908;SDS011;6522;49.622;6.126;2023-05-29T02:23:24;13.10;;;12.20;;
12908;SDS011;6522;49.622;6.126;2023-05-29T02:26:12;13.70;;;12.73;;
12908;SDS011;6522;49.622;6.126;2023-05-29T02:28:57;13.68;;;12.77;;
12908;SDS011;6522;49.622;6.126;2023-05-29T02:31:44;13.20;;;12.20;;
12908;SDS011;6522;49.622;6.126;2023-05-29T02:34:31;12.82;;;12.02;;
12908;SDS011;6522;49.622;6.126;2023-05-29T02:37:18;12.57;;;11.75;;
12908;SDS011;6522;49.622;6.126;2023-05-29T02:40:05;12.37;;;11.48;;
12908;SDS011;6522;49.622;6.126;2023-05-29T02:42:52;12.52;;;11.60;;
12908;SDS011;6522;49.622;6.126;2023-05-29T02:45:39;17.92;;;16.92;;
12908;SDS011;6522;49.622;6.126;2023-05-29T02:48:25;13.55;;;12.55;;
12908;SDS011;6522;49.622;6.126;2023-05-29T02:51:12;12.82;;;11.82;;
12908;SDS011;6522;49.622;6.126;2023-05-29T02:53:59;12.60;;;10.68;;
12908;SDS011;6522;49.622;6.126;2023-05-29T02:56:45;12.95;;;11.95;;
12908;SDS011;6522;49.622;6.126;2023-05-29T02:59:32;12.27;;;11.57;;
12908;SDS011;6522;49.622;6.126;2023-05-29T03:02:19;12.02;;;11.23;;
12908;SDS011;6522;49.622;6.126;2023-05-29T03:05:06;12.65;;;11.80;;
12908;SDS011;6522;49.622;6.126;2023-05-29T03:07:52;12.20;;;11.40;;
12908;SDS011;6522;49.622;6.126;2023-05-29T03:10:39;12.50;;;11.80;;
12908;SDS011;6522;49.622;6.126;2023-05-29T03:13:25;13.50;;;12.50;;
12908;SDS011;6522;49.622;6.126;2023-05-29T03:16:12;13.13;;;12.23;;
12908;SDS011;6522;49.622;6.126;2023-05-29T03:18:59;13.27;;;12.30;;
12908;SDS011;6522;49.622;6.126;2023-05-29T03:21:46;13.15;;;12.25;;
12908;SDS011;6522;49.622;6.126;2023-05-29T03:24:32;14.00;;;13.00;;
12908;SDS011;6522;49.622;6.126;2023-05-29T03:27:19;13.15;;;12.13;;
12908;SDS011;6522;49.622;6.126;2023-05-29T03:30:06;12.60;;;11.70;;
12908;SDS011;6522;49.622;6.126;2023-05-29T03:32:53;12.95;;;12.15;;
12908;SDS011;6522;49.622;6.126;2023-05-29T03:35:40;12.13;;;11.45;;
12908;SDS011;6522;49.622;6.126;2023-05-29T03:38:27;13.38;;;12.57;;
12908;SDS011;6522;49.622;6.126;2023-05-29T03:41:14;13.45;;;12.45;;
12908;SDS011;6522;49.622;6.126;2023-05-29T03:44:01;12.77;;;11.98;;
12908;SDS011;6522;49.622;6.126;2023-05-29T03:46:47;13.75;;;12.75;;
12908;SDS011;6522;49.622;6.126;2023-05-29T03:49:34;14.07;;;13.00;;
12908;SDS011;6522;49.622;6.126;2023-05-29T03:52:21;13.82;;;12.93;;
12908;SDS011;6522;49.622;6.126;2023-05-29T03:55:11;13.77;;;12.88;;
12908;SDS011;6522;49.622;6.126;2023-05-29T03:57:54;13.68;;;12.55;;
12908;SDS011;6522;49.622;6.126;2023-05-29T04:00:41;12.90;;;12.00;;
12908;SDS011;6522;49.622;6.126;2023-05-29T04:03:28;14.27;;;13.38;;
12908;SDS011;6522;49.622;6.126;2023-05-29T04:06:15;13.25;;;12.35;;
12908;SDS011;6522;49.622;6.126;2023-05-29T04:09:01;13.45;;;12.60;;
12908;SDS011;6522;49.622;6.126;2023-05-29T04:11:48;13.32;;;12.37;;
12908;SDS011;6522;49.622;6.126;2023-05-29T04:14:34;13.62;;;12.57;;
12908;SDS011;6522;49.622;6.126;2023-05-29T04:17:21;14.30;;;13.40;;
12908;SDS011;6522;49.622;6.126;2023-05-29T04:20:08;13.90;;;12.80;;
12908;SDS011;6522;49.622;6.126;2023-05-29T04:22:55;14.05;;;13.20;;
12908;SDS011;6522;49.622;6.126;2023-05-29T04:25:42;14.95;;;13.85;;
12908;SDS011;6522;49.622;6.126;2023-05-29T04:28:29;14.73;;;13.70;;
12908;SDS011;6522;49.622;6.126;2023-05-29T04:31:16;15.15;;;13.98;;
12908;SDS011;6522;49.622;6.126;2023-05-29T04:34:03;14.50;;;13.60;;
12908;SDS011;6522;49.622;6.126;2023-05-29T04:36:50;13.98;;;13.05;;
12908;SDS011;6522;49.622;6.126;2023-05-29T04:39:36;14.93;;;13.90;;
12908;SDS011;6522;49.622;6.126;2023-05-29T04:42:23;13.25;;;12.20;;
12908;SDS011;6522;49.622;6.126;2023-05-29T04:45:10;15.20;;;14.00;;
12908;SDS011;6522;49.622;6.126;2023-05-29T04:48:00;13.00;;;12.00;;
12908;SDS011;6522;49.622;6.126;2023-05-29T04:50:47;15.43;;;14.43;;
12908;SDS011;6522;49.622;6.126;2023-05-29T04:53:33;14.55;;;13.62;;
12908;SDS011;6522;49.622;6.126;2023-05-29T04:56:20;15.98;;;14.60;;
12908;SDS011;6522;49.622;6.126;2023-05-29T04:59:07;15.10;;;14.20;;
12908;SDS011;6522;49.622;6.126;2023-05-29T05:01:54;15.88;;;14.77;;
12908;SDS011;6522;49.622;6.126;2023-05-29T05:04:41;15.02;;;14.13;;
12908;SDS011;6522;49.622;6.126;2023-05-29T05:07:28;14.60;;;13.60;;
12908;SDS011;6522;49.622;6.126;2023-05-29T05:10:14;14.70;;;13.77;;
12908;SDS011;6522;49.622;6.126;2023-05-29T05:13:01;16.50;;;15.20;;
12908;SDS011;6522;49.622;6.126;2023-05-29T05:15:48;14.65;;;13.68;;
12908;SDS011;6522;49.622;6.126;2023-05-29T05:18:35;15.70;;;14.50;;
12908;SDS011;6522;49.622;6.126;2023-05-29T05:21:22;17.12;;;15.55;;
12908;SDS011;6522;49.622;6.126;2023-05-29T05:24:09;15.73;;;14.73;;
12908;SDS011;6522;49.622;6.126;2023-05-29T05:26:56;14.63;;;13.52;;
12908;SDS011;6522;49.622;6.126;2023-05-29T05:29:43;14.80;;;13.57;;
12908;SDS011;6522;49.622;6.126;2023-05-29T05:32:29;14.85;;;13.70;;
12908;SDS011;6522;49.622;6.126;2023-05-29T05:35:16;15.50;;;14.30;;
12908;SDS011;6522;49.622;6.126;2023-05-29T05:38:03;15.43;;;14.02;;
12908;SDS011;6522;49.622;6.126;2023-05-29T05:40:50;15.23;;;14.32;;
12908;SDS011;6522;49.622;6.126;2023-05-29T05:43:36;16.25;;;14.85;;
12908;SDS011;6522;49.622;6.126;2023-05-29T05:46:23;16.00;;;14.98;;
12908;SDS011;6522;49.622;6.126;2023-05-29T05:49:10;14.70;;;13.70;;
12908;SDS011;6522;49.622;6.126;2023-05-29T05:51:56;16.05;;;14.70;;
12908;SDS011;6522;49.622;6.126;2023-05-29T05:54:43;15.60;;;14.23;;
12908;SDS011;6522;49.622;6.126;2023-05-29T05:57:30;16.23;;;14.93;;
12908;SDS011;6522;49.622;6.126;2023-05-29T06:00:17;13.57;;;12.52;;
12908;SDS011;6522;49.622;6.126;2023-05-29T06:03:04;13.15;;;12.35;;
12908;SDS011;6522;49.622;6.126;2023-05-29T06:05:50;13.73;;;12.80;;
12908;SDS011;6522;49.622;6.126;2023-05-29T06:08:38;14.32;;;13.27;;
12908;SDS011;6522;49.622;6.126;2023-05-29T06:11:25;13.43;;;12.52;;
12908;SDS011;6522;49.622;6.126;2023-05-29T06:14:14;15.40;;;14.40;;
12908;SDS011;6522;49.622;6.126;2023-05-29T06:17:01;13.85;;;12.85;;
12908;SDS011;6522;49.622;6.126;2023-05-29T06:19:48;15.68;;;14.35;;
12908;SDS011;6522;49.622;6.126;2023-05-29T06:22:34;15.00;;;13.90;;
12908;SDS011;6522;49.622;6.126;2023-05-29T06:25:21;14.68;;;13.30;;
12908;SDS011;6522;49.622;6.126;2023-05-29T06:28:08;14.73;;;13.45;;
12908;SDS011;6522;49.622;6.126;2023-05-29T06:30:55;15.52;;;14.43;;
12908;SDS011;6522;49.622;6.126;2023-05-29T06:33:41;14.50;;;13.70;;
12908;SDS011;6522;49.622;6.126;2023-05-29T06:36:28;15.18;;;14.27;;
12908;SDS011;6522;49.622;6.126;2023-05-29T06:39:15;15.38;;;14.30;;
12908;SDS011;6522;49.622;6.126;2023-05-29T06:42:01;16.05;;;14.87;;
12908;SDS011;6522;49.622;6.126;2023-05-29T06:44:48;16.50;;;15.40;;
12908;SDS011;6522;49.622;6.126;2023-05-29T06:47:35;16.35;;;15.45;;
12908;SDS011;6522;49.622;6.126;2023-05-29T06:50:22;14.90;;;14.10;;
12908;SDS011;6522;49.622;6.126;2023-05-29T06:53:09;14.60;;;13.50;;
12908;SDS011;6522;49.622;6.126;2023-05-29T06:55:56;15.90;;;14.90;;
12908;SDS011;6522;49.622;6.126;2023-05-29T06:58:43;14.05;;;13.05;;
12908;SDS011;6522;49.622;6.126;2023-05-29T07:01:29;15.27;;;13.88;;
12908;SDS011;6522;49.622;6.126;2023-05-29T07:04:17;18.03;;;16.93;;
12908;SDS011;6522;49.622;6.126;2023-05-29T07:07:03;16.17;;;15.17;;
12908;SDS011;6522;49.622;6.126;2023-05-29T07:09:50;15.73;;;14.73;;
12908;SDS011;6522;49.622;6.126;2023-05-29T07:12:37;15.55;;;14.25;;
12908;SDS011;6522;49.622;6.126;2023-05-29T07:15:23;16.30;;;15.10;;
12908;SDS011;6522;49.622;6.126;2023-05-29T07:18:10;20.73;;;18.77;;
12908;SDS011;6522;49.622;6.126;2023-05-29T07:20:57;16.55;;;15.35;;
12908;SDS011;6522;49.622;6.126;2023-05-29T07:23:44;16.80;;;15.52;;
12908;SDS011;6522;49.622;6.126;2023-05-29T07:26:30;19.43;;;18.10;;
12908;SDS011;6522;49.622;6.126;2023-05-29T07:29:17;16.50;;;15.48;;
12908;SDS011;6522;49.622;6.126;2023-05-29T07:32:04;17.60;;;16.20;;
12908;SDS011;6522;49.622;6.126;2023-05-29T07:34:51;19.70;;;18.50;;
12908;SDS011;6522;49.622;6.126;2023-05-29T07:37:38;17.70;;;16.50;;
12908;SDS011;6522;49.622;6.126;2023-05-29T07:40:25;17.50;;;16.10;;
12908;SDS011;6522;49.622;6.126;2023-05-29T07:43:11;19.83;;;18.53;;
12908;SDS011;6522;49.622;6.126;2023-05-29T07:45:58;17.10;;;16.00;;
12908;SDS011;6522;49.622;6.126;2023-05-29T07:48:45;19.47;;;18.27;;
12908;SDS011;6522;49.622;6.126;2023-05-29T07:51:31;17.02;;;15.88;;
12908;SDS011;6522;49.622;6.126;2023-05-29T07:54:18;17.40;;;16.20;;
12908;SDS011;6522;49.622;6.126;2023-05-29T07:57:05;20.57;;;19.27;;
12908;SDS011;6522;49.622;6.126;2023-05-29T07:59:52;17.43;;;16.23;;
12908;SDS011;6522;49.622;6.126;2023-05-29T08:02:39;16.60;;;15.50;;
12908;SDS011;6522;49.622;6.126;2023-05-29T08:05:25;19.40;;;18.30;;
12908;SDS011;6522;49.622;6.126;2023-05-29T08:08:12;19.17;;;18.10;;
12908;SDS011;6522;49.622;6.126;2023-05-29T08:10:59;17.92;;;16.80;;
12908;SDS011;6522;49.622;6.126;2023-05-29T08:13:46;17.33;;;16.23;;
12908;SDS011;6522;49.622;6.126;2023-05-29T08:16:32;19.70;;;18.60;;
12908;SDS011;6522;49.622;6.126;2023-05-29T08:19:19;19.63;;;18.33;;
12908;SDS011;6522;49.622;6.126;2023-05-29T08:22:06;19.23;;;18.23;;
12908;SDS011;6522;49.622;6.126;2023-05-29T08:24:52;19.90;;;18.70;;
12908;SDS011;6522;49.622;6.126;2023-05-29T08:27:39;19.90;;;18.47;;
12908;SDS011;6522;49.622;6.126;2023-05-29T08:30:26;18.23;;;17.23;;
12908;SDS011;6522;49.622;6.126;2023-05-29T08:33:13;19.30;;;18.20;;
12908;SDS011;6522;49.622;6.126;2023-05-29T08:36:00;19.57;;;18.20;;
12908;SDS011;6522;49.622;6.126;2023-05-29T08:38:50;17.00;;;15.85;;
12908;SDS011;6522;49.622;6.126;2023-05-29T08:41:59;20.97;;;19.30;;
12908;SDS011;6522;49.622;6.126;2023-05-29T08:44:42;19.70;;;18.50;;
12908;SDS011;6522;49.622;6.126;2023-05-29T08:47:29;19.70;;;18.40;;
12908;SDS011;6522;49.622;6.126;2023-05-29T08:50:15;17.60;;;16.40;;
12908;SDS011;6522;49.622;6.126;2023-05-29T08:53:03;20.90;;;19.20;;
12908;SDS011;6522;49.622;6.126;2023-05-29T08:55:49;19.70;;;18.70;;
12908;SDS011;6522;49.622;6.126;2023-05-29T08:58:42;20.10;;;19.00;;
12908;SDS011;6522;49.622;6.126;2023-05-29T09:01:28;20.30;;;19.07;;
12908;SDS011;6522;49.622;6.126;2023-05-29T09:04:16;19.27;;;18.27;;
12908;SDS011;6522;49.622;6.126;2023-05-29T09:07:02;18.33;;;16.95;;
12908;SDS011;6522;49.622;6.126;2023-05-29T09:09:49;19.30;;;18.30;;
12908;SDS011;6522;49.622;6.126;2023-05-29T09:12:36;19.57;;;18.33;;
12908;SDS011;6522;49.622;6.126;2023-05-29T09:15:23;19.17;;;17.97;;
12908;SDS011;6522;49.622;6.126;2023-05-29T09:18:09;19.57;;;18.57;;
12908;SDS011;6522;49.622;6.126;2023-05-29T09:20:56;18.67;;;17.73;;
12908;SDS011;6522;49.622;6.126;2023-05-29T09:23:43;19.60;;;18.10;;
12908;SDS011;6522;49.622;6.126;2023-05-29T09:26:30;19.27;;;17.87;;
12908;SDS011;6522;49.622;6.126;2023-05-29T09:29:17;18.70;;;17.70;;
12908;SDS011;6522;49.622;6.126;2023-05-29T09:32:06;18.80;;;17.80;;
12908;SDS011;6522;49.622;6.126;2023-05-29T09:34:50;18.87;;;17.70;;
12908;SDS011;6522;49.622;6.126;2023-05-29T09:37:41;17.83;;;16.90;;
12908;SDS011;6522;49.622;6.126;2023-05-29T09:40:23;20.67;;;19.47;;
12908;SDS011;6522;49.622;6.126;2023-05-29T09:43:17;17.90;;;17.00;;
12908;SDS011;6522;49.622;6.126;2023-05-29T09:46:03;18.17;;;17.17;;
12908;SDS011;6522;49.622;6.126;2023-05-29T09:48:49;18.57;;;17.50;;
12908;SDS011;6522;49.622;6.126;2023-05-29T09:51:36;17.15;;;16.15;;
12908;SDS011;6522;49.622;6.126;2023-05-29T09:54:23;18.60;;;17.60;;
12908;SDS011;6522;49.622;6.126;2023-05-29T09:57:10;17.77;;;16.77;;
12908;SDS011;6522;49.622;6.126;2023-05-29T09:59:57;18.67;;;17.63;;
12908;SDS011;6522;49.622;6.126;2023-05-29T10:02:43;18.33;;;17.27;;
12908;SDS011;6522;49.622;6.126;2023-05-29T10:05:30;16.30;;;15.10;;
12908;SDS011;6522;49.622;6.126;2023-05-29T10:08:18;16.20;;;15.10;;
12908;SDS011;6522;49.622;6.126;2023-05-29T10:11:04;19.53;;;18.00;;
12908;SDS011;6522;49.622;6.126;2023-05-29T10:13:51;18.80;;;17.80;;
12908;SDS011;6522;49.622;6.126;2023-05-29T10:16:39;18.70;;;17.40;;
12908;SDS011;6522;49.622;6.126;2023-05-29T10:19:26;18.70;;;17.60;;
12908;SDS011;6522;49.622;6.126;2023-05-29T10:22:12;16.40;;;15.50;;
12908;SDS011;6522;49.622;6.126;2023-05-29T10:24:59;19.20;;;18.07;;
12908;SDS011;6522;49.622;6.126;2023-05-29T10:27:46;19.67;;;18.57;;
12908;SDS011;6522;49.622;6.126;2023-05-29T10:30:43;19.40;;;18.20;;
12908;SDS011;6522;49.622;6.126;2023-05-29T10:36:44;18.97;;;17.83;;
12908;SDS011;6522;49.622;6.126;2023-05-29T10:39:27;18.10;;;17.20;;
12908;SDS011;6522;49.622;6.126;2023-05-29T10:43:00;18.00;;;17.10;;
12908;SDS011;6522;49.622;6.126;2023-05-29T10:45:00;15.85;;;14.85;;
12908;SDS011;6522;49.622;6.126;2023-05-29T10:47:47;18.57;;;17.50;;
12908;SDS011;6522;49.622;6.126;2023-05-29T10:50:35;18.37;;;17.37;;
12908;SDS011;6522;49.622;6.126;2023-05-29T10:53:30;17.93;;;16.93;;
12908;SDS011;6522;49.622;6.126;2023-05-29T10:56:20;16.05;;;14.98;;
12908;SDS011;6522;49.622;6.126;2023-05-29T10:59:03;17.50;;;16.40;;
12908;SDS011;6522;49.622;6.126;2023-05-29T11:01:50;17.80;;;16.87;;
12908;SDS011;6522;49.622;6.126;2023-05-29T11:04:37;17.47;;;16.47;;
12908;SDS011;6522;49.622;6.126;2023-05-29T11:07:34;16.77;;;15.87;;
12908;SDS011;6522;49.622;6.126;2023-05-29T11:11:06;17.80;;;16.70;;
12908;SDS011;6522;49.622;6.126;2023-05-29T11:13:07;17.97;;;17.07;;
12908;SDS011;6522;49.622;6.126;2023-05-29T11:16:13;16.60;;;15.77;;
12908;SDS011;6522;49.622;6.126;2023-05-29T11:19:03;16.97;;;16.00;;
12908;SDS011;6522;49.622;6.126;2023-05-29T11:24:33;17.60;;;16.60;;
12908;SDS011;6522;49.622;6.126;2023-05-29T11:27:20;17.90;;;16.67;;
12908;SDS011;6522;49.622;6.126;2023-05-29T11:30:07;18.17;;;17.03;;
12908;SDS011;6522;49.622;6.126;2023-05-29T11:32:54;17.70;;;16.77;;
12908;SDS011;6522;49.622;6.126;2023-05-29T11:35:41;17.60;;;16.60;;
12908;SDS011;6522;49.622;6.126;2023-05-29T11:38:28;17.47;;;16.57;;
12908;SDS011;6522;49.622;6.126;2023-05-29T11:41:16;17.80;;;16.83;;
12908;SDS011;6522;49.622;6.126;2023-05-29T11:44:02;15.40;;;14.50;;
12908;SDS011;6522;49.622;6.126;2023-05-29T11:46:58;17.33;;;16.33;;
12908;SDS011;6522;49.622;6.126;2023-05-29T11:49:35;17.73;;;16.47;;
12908;SDS011;6522;49.622;6.126;2023-05-29T11:52:22;15.23;;;14.13;;
12908;SDS011;6522;49.622;6.126;2023-05-29T11:55:09;18.10;;;16.63;;
12908;SDS011;6522;49.622;6.126;2023-05-29T11:57:56;17.20;;;16.10;;
12908;SDS011;6522;49.622;6.126;2023-05-29T12:00:42;17.77;;;16.67;;
12908;SDS011;6522;49.622;6.126;2023-05-29T12:03:30;17.37;;;16.33;;
12908;SDS011;6522;49.622;6.126;2023-05-29T12:06:16;18.27;;;16.93;;
12908;SDS011;6522;49.622;6.126;2023-05-29T12:09:03;18.13;;;16.77;;
12908;SDS011;6522;49.622;6.126;2023-05-29T12:11:50;17.70;;;16.67;;
12908;SDS011;6522;49.622;6.126;2023-05-29T12:14:37;17.60;;;16.60;;
12908;SDS011;6522;49.622;6.126;2023-05-29T12:17:24;17.00;;;16.10;;
12908;SDS011;6522;49.622;6.126;2023-05-29T12:20:11;17.10;;;16.10;;
12908;SDS011;6522;49.622;6.126;2023-05-29T12:23:01;17.50;;;16.60;;
12908;SDS011;6522;49.622;6.126;2023-05-29T12:25:48;17.30;;;16.30;;
12908;SDS011;6522;49.622;6.126;2023-05-29T12:28:35;16.37;;;15.50;;
12908;SDS011;6522;49.622;6.126;2023-05-29T12:31:27;14.60;;;13.60;;
12908;SDS011;6522;49.622;6.126;2023-05-29T12:34:14;16.83;;;15.93;;
12908;SDS011;6522;49.622;6.126;2023-05-29T12:37:05;16.40;;;15.60;;
12908;SDS011;6522;49.622;6.126;2023-05-29T12:43:02;15.60;;;14.60;;
12908;SDS011;6522;49.622;6.126;2023-05-29T12:45:54;14.70;;;13.90;;
12908;SDS011;6522;49.622;6.126;2023-05-29T12:48:41;17.40;;;16.43;;
12908;SDS011;6522;49.622;6.126;2023-05-29T12:51:28;16.97;;;16.07;;
12908;SDS011;6522;49.622;6.126;2023-05-29T12:54:15;16.63;;;15.80;;
12908;SDS011;6522;49.622;6.126;2023-05-29T12:57:01;17.90;;;17.00;;
12908;SDS011;6522;49.622;6.126;2023-05-29T12:59:48;17.83;;;16.83;;
12908;SDS011;6522;49.622;6.126;2023-05-29T13:02:35;17.57;;;16.57;;
12908;SDS011;6522;49.622;6.126;2023-05-29T13:05:21;17.00;;;16.10;;
12908;SDS011;6522;49.622;6.126;2023-05-29T13:08:08;15.60;;;14.70;;
12908;SDS011;6522;49.622;6.126;2023-05-29T13:10:55;17.50;;;16.50;;
12908;SDS011;6522;49.622;6.126;2023-05-29T13:13:41;17.17;;;16.27;;
12908;SDS011;6522;49.622;6.126;2023-05-29T13:16:28;16.70;;;15.80;;
12908;SDS011;6522;49.622;6.126;2023-05-29T13:19:15;18.13;;;16.80;;
12908;SDS011;6522;49.622;6.126;2023-05-29T13:22:02;16.70;;;15.90;;
12908;SDS011;6522;49.622;6.126;2023-05-29T13:24:48;17.67;;;16.77;;
12908;SDS011;6522;49.622;6.126;2023-05-29T13:27:36;17.77;;;16.70;;
12908;SDS011;6522;49.622;6.126;2023-05-29T13:30:22;17.90;;;16.77;;
12908;SDS011;6522;49.622;6.126;2023-05-29T13:33:09;18.57;;;17.43;;
12908;SDS011;6522;49.622;6.126;2023-05-29T13:35:56;17.57;;;16.67;;
12908;SDS011;6522;49.622;6.126;2023-05-29T13:38:42;17.90;;;16.90;;
12908;SDS011;6522;49.622;6.126;2023-05-29T13:41:30;18.23;;;17.10;;
12908;SDS011;6522;49.622;6.126;2023-05-29T13:44:16;18.20;;;17.10;;
12908;SDS011;6522;49.622;6.126;2023-05-29T13:47:03;17.83;;;16.70;;
12908;SDS011;6522;49.622;6.126;2023-05-29T13:49:50;17.30;;;16.50;;
12908;SDS011;6522;49.622;6.126;2023-05-29T13:52:36;19.20;;;18.30;;
12908;SDS011;6522;49.622;6.126;2023-05-29T13:55:23;19.87;;;18.80;;
12908;SDS011;6522;49.622;6.126;2023-05-29T13:58:10;19.10;;;18.20;;
12908;SDS011;6522;49.622;6.126;2023-05-29T14:00:56;18.90;;;17.90;;
12908;SDS011;6522;49.622;6.126;2023-05-29T14:03:43;20.27;;;19.17;;
12908;SDS011;6522;49.622;6.126;2023-05-29T14:06:30;20.37;;;19.23;;
12908;SDS011;6522;49.622;6.126;2023-05-29T14:09:16;20.37;;;19.37;;
12908;SDS011;6522;49.622;6.126;2023-05-29T14:12:03;20.80;;;19.50;;
12908;SDS011;6522;49.622;6.126;2023-05-29T14:14:49;19.80;;;18.70;;
12908;SDS011;6522;49.622;6.126;2023-05-29T14:17:36;19.77;;;18.77;;
12908;SDS011;6522;49.622;6.126;2023-05-29T14:20:23;20.07;;;18.97;;
12908;SDS011;6522;49.622;6.126;2023-05-29T14:23:10;20.47;;;19.47;;
12908;SDS011;6522;49.622;6.126;2023-05-29T14:25:57;20.67;;;19.57;;
12908;SDS011;6522;49.622;6.126;2023-05-29T14:28:44;20.53;;;19.43;;
12908;SDS011;6522;49.622;6.126;2023-05-29T14:31:30;21.27;;;20.20;;
12908;SDS011;6522;49.622;6.126;2023-05-29T14:34:16;20.47;;;19.37;;
12908;SDS011;6522;49.622;6.126;2023-05-29T14:37:03;20.50;;;19.50;;
12908;SDS011;6522;49.622;6.126;2023-05-29T14:39:51;22.90;;;20.77;;
12908;SDS011;6522;49.622;6.126;2023-05-29T14:42:37;22.37;;;21.00;;
12908;SDS011;6522;49.622;6.126;2023-05-29T14:45:24;22.57;;;21.27;;
12908;SDS011;6522;49.622;6.126;2023-05-29T14:48:10;22.63;;;21.43;;
12908;SDS011;6522;49.622;6.126;2023-05-29T14:50:57;22.07;;;20.87;;
12908;SDS011;6522;49.622;6.126;2023-05-29T14:53:44;21.17;;;20.10;;
12908;SDS011;6522;49.622;6.126;2023-05-29T14:56:30;21.60;;;20.20;;
12908;SDS011;6522;49.622;6.126;2023-05-29T14:59:17;21.77;;;20.57;;
12908;SDS011;6522;49.622;6.126;2023-05-29T15:02:04;21.90;;;20.80;;
12908;SDS011;6522;49.622;6.126;2023-05-29T15:04:51;22.37;;;21.07;;
12908;SDS011;6522;49.622;6.126;2023-05-29T15:07:38;21.70;;;20.50;;
12908;SDS011;6522;49.622;6.126;2023-05-29T15:10:24;22.90;;;21.60;;
12908;SDS011;6522;49.622;6.126;2023-05-29T15:13:11;20.05;;;18.75;;
12908;SDS011;6522;49.622;6.126;2023-05-29T15:15:57;21.37;;;20.27;;
12908;SDS011;6522;49.622;6.126;2023-05-29T15:18:47;19.08;;;17.98;;
12908;SDS011;6522;49.622;6.126;2023-05-29T15:21:34;22.00;;;20.80;;
12908;SDS011;6522;49.622;6.126;2023-05-29T15:24:21;21.63;;;20.43;;
12908;SDS011;6522;49.622;6.126;2023-05-29T15:27:07;22.80;;;21.40;;
12908;SDS011;6522;49.622;6.126;2023-05-29T15:29:54;22.63;;;21.43;;
12908;SDS011;6522;49.622;6.126;2023-05-29T15:32:42;21.33;;;20.27;;
12908;SDS011;6522;49.622;6.126;2023-05-29T15:35:28;22.27;;;21.17;;
12908;SDS011;6522;49.622;6.126;2023-05-29T15:38:14;23.00;;;21.70;;
12908;SDS011;6522;49.622;6.126;2023-05-29T15:41:01;23.03;;;21.83;;
12908;SDS011;6522;49.622;6.126;2023-05-29T15:43:48;22.67;;;21.43;;
12908;SDS011;6522;49.622;6.126;2023-05-29T15:46:35;22.90;;;21.80;;
12908;SDS011;6522;49.622;6.126;2023-05-29T15:49:21;23.23;;;21.90;;
12908;SDS011;6522;49.622;6.126;2023-05-29T15:52:09;23.53;;;22.23;;
12908;SDS011;6522;49.622;6.126;2023-05-29T15:54:56;23.40;;;22.00;;
12908;SDS011;6522;49.622;6.126;2023-05-29T15:57:42;23.30;;;21.97;;
12908;SDS011;6522;49.622;6.126;2023-05-29T16:00:29;23.43;;;22.10;;
12908;SDS011;6522;49.622;6.126;2023-05-29T16:03:16;24.67;;;23.03;;
12908;SDS011;6522;49.622;6.126;2023-05-29T16:06:03;23.60;;;22.30;;
12908;SDS011;6522;49.622;6.126;2023-05-29T16:08:49;23.40;;;21.97;;
12908;SDS011;6522;49.622;6.126;2023-05-29T16:11:37;22.57;;;21.23;;
12908;SDS011;6522;49.622;6.126;2023-05-29T16:14:23;23.10;;;21.83;;
12908;SDS011;6522;49.622;6.126;2023-05-29T16:17:10;24.83;;;22.80;;
12908;SDS011;6522;49.622;6.126;2023-05-29T16:19:56;23.30;;;21.70;;
12908;SDS011;6522;49.622;6.126;2023-05-29T16:22:43;22.83;;;21.60;;
12908;SDS011;6522;49.622;6.126;2023-05-29T16:25:30;20.85;;;19.55;;
12908;SDS011;6522;49.622;6.126;2023-05-29T16:28:17;23.63;;;22.10;;
12908;SDS011;6522;49.622;6.126;2023-05-29T16:31:03;23.73;;;22.13;;
12908;SDS011;6522;49.622;6.126;2023-05-29T16:33:51;23.33;;;21.93;;
12908;SDS011;6522;49.622;6.126;2023-05-29T16:36:37;24.20;;;22.60;;
12908;SDS011;6522;49.622;6.126;2023-05-29T16:39:24;24.23;;;22.90;;
12908;SDS011;6522;49.622;6.126;2023-05-29T16:42:11;20.80;;;19.40;;
12908;SDS011;6522;49.622;6.126;2023-05-29T16:44:58;24.00;;;22.60;;